sensor_id;sensor_type;location;lat;lon;timestamp;P1;durP1;ratioP1;P2;durP2;ratioP2
51981;SDS011;37998;53.416;6.730;2022-10-16T00:01:58;12.52;;;2.30;;
51981;SDS011;37998;53.416;6.730;2022-10-16T00:04:24;6.35;;;2.25;;
51981;SDS011;37998;53.416;6.730;2022-10-16T00:06:49;7.13;;;2.60;;
51981;SDS011;37998;53.416;6.730;2022-10-16T00:09:15;9.30;;;2.95;;
51981;SDS011;37998;53.416;6.730;2022-10-16T00:11:41;8.98;;;2.13;;
51981;SDS011;37998;53.416;6.730;2022-10-16T00:14:09;4.25;;;1.95;;
51981;SDS011;37998;53.416;6.730;2022-10-16T00:16:37;8.82;;;2.55;;
51981;SDS011;37998;53.416;6.730;2022-10-16T00:19:03;5.93;;;1.85;;
51981;SDS011;37998;53.416;6.730;2022-10-16T00:21:29;7.10;;;2.10;;
51981;SDS011;37998;53.416;6.730;2022-10-16T00:24:06;9.50;;;2.10;;
51981;SDS011;37998;53.416;6.730;2022-10-16T00:26:34;5.93;;;1.98;;
51981;SDS011;37998;53.416;6.730;2022-10-16T00:29:01;8.85;;;2.30;;
51981;SDS011;37998;53.416;6.730;2022-10-16T00:31:27;7.10;;;2.35;;
51981;SDS011;37998;53.416;6.730;2022-10-16T00:33:53;7.50;;;1.75;;
51981;SDS011;37998;53.416;6.730;2022-10-16T00:36:19;6.95;;;2.08;;
51981;SDS011;37998;53.416;6.730;2022-10-16T00:38:47;11.10;;;2.38;;
51981;SDS011;37998;53.416;6.730;2022-10-16T00:41:17;10.95;;;1.98;;
51981;SDS011;37998;53.416;6.730;2022-10-16T00:43:44;6.65;;;1.95;;
51981;SDS011;37998;53.416;6.730;2022-10-16T00:46:22;3.47;;;1.70;;
51981;SDS011;37998;53.416;6.730;2022-10-16T00:51:34;8.75;;;2.42;;
51981;SDS011;37998;53.416;6.730;2022-10-16T00:54:06;7.15;;;1.92;;
51981;SDS011;37998;53.416;6.730;2022-10-16T00:56:35;9.38;;;1.88;;
51981;SDS011;37998;53.416;6.730;2022-10-16T00:59:04;8.65;;;2.17;;
51981;SDS011;37998;53.416;6.730;2022-10-16T01:01:35;10.13;;;1.83;;
51981;SDS011;37998;53.416;6.730;2022-10-16T01:04:01;6.03;;;2.75;;
51981;SDS011;37998;53.416;6.730;2022-10-16T01:17:05;5.13;;;2.00;;
51981;SDS011;37998;53.416;6.730;2022-10-16T01:19:39;7.15;;;1.90;;
51981;SDS011;37998;53.416;6.730;2022-10-16T01:22:33;6.60;;;2.15;;
51981;SDS011;37998;53.416;6.730;2022-10-16T01:25:16;6.03;;;2.05;;
51981;SDS011;37998;53.416;6.730;2022-10-16T01:27:50;6.45;;;1.75;;
51981;SDS011;37998;53.416;6.730;2022-10-16T01:30:17;4.45;;;1.70;;
51981;SDS011;37998;53.416;6.730;2022-10-16T01:32:53;5.70;;;1.50;;
51981;SDS011;37998;53.416;6.730;2022-10-16T01:38:27;6.72;;;1.98;;
51981;SDS011;37998;53.416;6.730;2022-10-16T01:41:00;8.38;;;1.77;;
51981;SDS011;37998;53.416;6.730;2022-10-16T01:43:53;8.00;;;1.80;;
51981;SDS011;37998;53.416;6.730;2022-10-16T01:46:23;7.35;;;2.13;;
51981;SDS011;37998;53.416;6.730;2022-10-16T01:48:51;5.03;;;1.92;;
51981;SDS011;37998;53.416;6.730;2022-10-16T01:51:19;4.68;;;1.83;;
51981;SDS011;37998;53.416;6.730;2022-10-16T01:53:47;8.60;;;2.22;;
51981;SDS011;37998;53.416;6.730;2022-10-16T01:56:17;8.57;;;1.95;;
51981;SDS011;37998;53.416;6.730;2022-10-16T01:58:52;6.60;;;1.90;;
51981;SDS011;37998;53.416;6.730;2022-10-16T02:01:21;5.53;;;1.70;;
51981;SDS011;37998;53.416;6.730;2022-10-16T02:03:51;10.88;;;1.88;;
51981;SDS011;37998;53.416;6.730;2022-10-16T02:06:20;7.72;;;1.63;;
51981;SDS011;37998;53.416;6.730;2022-10-16T02:08:46;3.60;;;1.45;;
51981;SDS011;37998;53.416;6.730;2022-10-16T02:11:11;6.95;;;2.40;;
51981;SDS011;37998;53.416;6.730;2022-10-16T02:13:39;3.30;;;1.70;;
51981;SDS011;37998;53.416;6.730;2022-10-16T02:16:10;6.85;;;2.25;;
51981;SDS011;37998;53.416;6.730;2022-10-16T02:18:38;5.72;;;2.25;;
51981;SDS011;37998;53.416;6.730;2022-10-16T02:21:15;4.30;;;1.60;;
51981;SDS011;37998;53.416;6.730;2022-10-16T02:23:51;8.82;;;1.65;;
51981;SDS011;37998;53.416;6.730;2022-10-16T02:26:27;7.25;;;1.75;;
51981;SDS011;37998;53.416;6.730;2022-10-16T02:29:14;3.25;;;1.70;;
51981;SDS011;37998;53.416;6.730;2022-10-16T02:31:45;6.05;;;1.67;;
51981;SDS011;37998;53.416;6.730;2022-10-16T02:34:14;3.88;;;1.77;;
51981;SDS011;37998;53.416;6.730;2022-10-16T02:36:43;4.00;;;1.70;;
51981;SDS011;37998;53.416;6.730;2022-10-16T02:39:10;4.88;;;1.90;;
51981;SDS011;37998;53.416;6.730;2022-10-16T02:41:36;3.78;;;1.58;;
51981;SDS011;37998;53.416;6.730;2022-10-16T02:44:03;5.15;;;1.90;;
51981;SDS011;37998;53.416;6.730;2022-10-16T02:46:28;4.60;;;1.80;;
51981;SDS011;37998;53.416;6.730;2022-10-16T02:48:54;4.43;;;1.83;;
51981;SDS011;37998;53.416;6.730;2022-10-16T02:51:20;4.38;;;1.67;;
51981;SDS011;37998;53.416;6.730;2022-10-16T02:53:46;5.55;;;1.90;;
51981;SDS011;37998;53.416;6.730;2022-10-16T02:56:11;5.47;;;2.00;;
51981;SDS011;37998;53.416;6.730;2022-10-16T02:58:37;8.45;;;1.80;;
51981;SDS011;37998;53.416;6.730;2022-10-16T03:01:02;5.07;;;1.75;;
51981;SDS011;37998;53.416;6.730;2022-10-16T03:03:28;5.13;;;2.00;;
51981;SDS011;37998;53.416;6.730;2022-10-16T03:05:54;3.13;;;1.85;;
51981;SDS011;37998;53.416;6.730;2022-10-16T03:08:19;6.53;;;1.85;;
51981;SDS011;37998;53.416;6.730;2022-10-16T03:10:48;4.53;;;2.00;;
51981;SDS011;37998;53.416;6.730;2022-10-16T03:13:14;4.63;;;1.67;;
51981;SDS011;37998;53.416;6.730;2022-10-16T03:15:40;5.55;;;1.92;;
51981;SDS011;37998;53.416;6.730;2022-10-16T03:18:05;5.13;;;1.80;;
51981;SDS011;37998;53.416;6.730;2022-10-16T03:20:31;6.35;;;1.80;;
51981;SDS011;37998;53.416;6.730;2022-10-16T03:22:57;4.10;;;1.50;;
51981;SDS011;37998;53.416;6.730;2022-10-16T03:25:23;8.77;;;2.08;;
51981;SDS011;37998;53.416;6.730;2022-10-16T03:27:49;7.10;;;1.80;;
51981;SDS011;37998;53.416;6.730;2022-10-16T03:30:14;6.68;;;1.77;;
51981;SDS011;37998;53.416;6.730;2022-10-16T03:32:41;5.88;;;2.00;;
51981;SDS011;37998;53.416;6.730;2022-10-16T03:35:08;3.55;;;2.05;;
51981;SDS011;37998;53.416;6.730;2022-10-16T03:37:34;6.65;;;2.10;;
51981;SDS011;37998;53.416;6.730;2022-10-16T03:39:59;6.53;;;2.25;;
51981;SDS011;37998;53.416;6.730;2022-10-16T03:42:25;3.50;;;1.83;;
51981;SDS011;37998;53.416;6.730;2022-10-16T03:44:51;6.95;;;1.60;;
51981;SDS011;37998;53.416;6.730;2022-10-16T03:47:17;3.42;;;2.00;;
51981;SDS011;37998;53.416;6.730;2022-10-16T03:49:46;5.60;;;1.83;;
51981;SDS011;37998;53.416;6.730;2022-10-16T03:52:12;4.38;;;1.83;;
51981;SDS011;37998;53.416;6.730;2022-10-16T03:54:38;3.22;;;1.73;;
51981;SDS011;37998;53.416;6.730;2022-10-16T03:57:03;3.38;;;1.60;;
51981;SDS011;37998;53.416;6.730;2022-10-16T03:59:29;7.63;;;1.70;;
51981;SDS011;37998;53.416;6.730;2022-10-16T04:01:55;4.55;;;1.90;;
51981;SDS011;37998;53.416;6.730;2022-10-16T04:04:20;4.95;;;1.75;;
51981;SDS011;37998;53.416;6.730;2022-10-16T04:06:46;6.68;;;1.90;;
51981;SDS011;37998;53.416;6.730;2022-10-16T04:09:12;3.10;;;1.52;;
51981;SDS011;37998;53.416;6.730;2022-10-16T04:11:37;1.98;;;1.50;;
51981;SDS011;37998;53.416;6.730;2022-10-16T04:14:04;2.30;;;1.67;;
51981;SDS011;37998;53.416;6.730;2022-10-16T04:16:29;2.55;;;1.48;;
51981;SDS011;37998;53.416;6.730;2022-10-16T04:18:55;5.28;;;1.52;;
51981;SDS011;37998;53.416;6.730;2022-10-16T04:21:21;5.55;;;1.50;;
51981;SDS011;37998;53.416;6.730;2022-10-16T04:23:47;3.20;;;1.70;;
51981;SDS011;37998;53.416;6.730;2022-10-16T04:26:14;3.65;;;2.20;;
51981;SDS011;37998;53.416;6.730;2022-10-16T04:28:40;4.20;;;1.60;;
51981;SDS011;37998;53.416;6.730;2022-10-16T04:31:06;3.92;;;1.80;;
51981;SDS011;37998;53.416;6.730;2022-10-16T04:33:32;3.33;;;1.63;;
51981;SDS011;37998;53.416;6.730;2022-10-16T04:35:58;6.65;;;1.98;;
51981;SDS011;37998;53.416;6.730;2022-10-16T04:38:25;2.35;;;1.50;;
51981;SDS011;37998;53.416;6.730;2022-10-16T04:40:51;3.30;;;1.60;;
51981;SDS011;37998;53.416;6.730;2022-10-16T04:43:17;4.15;;;1.67;;
51981;SDS011;37998;53.416;6.730;2022-10-16T04:45:43;4.10;;;1.60;;
51981;SDS011;37998;53.416;6.730;2022-10-16T04:48:09;2.25;;;1.33;;
51981;SDS011;37998;53.416;6.730;2022-10-16T04:50:34;3.38;;;1.63;;
51981;SDS011;37998;53.416;6.730;2022-10-16T04:53:03;1.83;;;1.73;;
51981;SDS011;37998;53.416;6.730;2022-10-16T04:55:28;9.30;;;1.90;;
51981;SDS011;37998;53.416;6.730;2022-10-16T04:57:54;2.28;;;1.58;;
51981;SDS011;37998;53.416;6.730;2022-10-16T05:00:20;3.97;;;1.73;;
51981;SDS011;37998;53.416;6.730;2022-10-16T05:02:47;3.95;;;1.73;;
51981;SDS011;37998;53.416;6.730;2022-10-16T05:05:14;3.88;;;2.10;;
51981;SDS011;37998;53.416;6.730;2022-10-16T05:07:40;2.83;;;1.73;;
51981;SDS011;37998;53.416;6.730;2022-10-16T05:10:05;5.47;;;1.90;;
51981;SDS011;37998;53.416;6.730;2022-10-16T05:12:31;5.70;;;1.83;;
51981;SDS011;37998;53.416;6.730;2022-10-16T05:14:58;5.18;;;1.90;;
51981;SDS011;37998;53.416;6.730;2022-10-16T05:17:26;3.47;;;1.73;;
51981;SDS011;37998;53.416;6.730;2022-10-16T05:19:52;2.90;;;1.90;;
51981;SDS011;37998;53.416;6.730;2022-10-16T05:22:17;4.07;;;1.77;;
51981;SDS011;37998;53.416;6.730;2022-10-16T05:24:43;4.63;;;2.15;;
51981;SDS011;37998;53.416;6.730;2022-10-16T05:27:09;2.92;;;1.70;;
51981;SDS011;37998;53.416;6.730;2022-10-16T05:29:36;4.15;;;1.88;;
51981;SDS011;37998;53.416;6.730;2022-10-16T05:32:02;4.15;;;2.00;;
51981;SDS011;37998;53.416;6.730;2022-10-16T05:34:28;3.90;;;2.35;;
51981;SDS011;37998;53.416;6.730;2022-10-16T05:36:54;6.60;;;1.95;;
51981;SDS011;37998;53.416;6.730;2022-10-16T05:39:19;5.38;;;1.85;;
51981;SDS011;37998;53.416;6.730;2022-10-16T05:41:45;6.40;;;2.33;;
51981;SDS011;37998;53.416;6.730;2022-10-16T05:44:11;6.63;;;2.53;;
51981;SDS011;37998;53.416;6.730;2022-10-16T05:46:36;2.92;;;1.67;;
51981;SDS011;37998;53.416;6.730;2022-10-16T05:49:02;4.57;;;1.98;;
51981;SDS011;37998;53.416;6.730;2022-10-16T05:51:28;2.67;;;1.63;;
51981;SDS011;37998;53.416;6.730;2022-10-16T05:53:54;3.75;;;1.80;;
51981;SDS011;37998;53.416;6.730;2022-10-16T05:56:20;5.65;;;2.03;;
51981;SDS011;37998;53.416;6.730;2022-10-16T05:58:45;3.25;;;1.67;;
51981;SDS011;37998;53.416;6.730;2022-10-16T06:01:12;4.70;;;1.73;;
51981;SDS011;37998;53.416;6.730;2022-10-16T06:03:40;4.95;;;1.90;;
51981;SDS011;37998;53.416;6.730;2022-10-16T06:06:12;7.40;;;1.98;;
51981;SDS011;37998;53.416;6.730;2022-10-16T06:08:40;3.22;;;2.00;;
51981;SDS011;37998;53.416;6.730;2022-10-16T06:11:08;9.18;;;2.38;;
51981;SDS011;37998;53.416;6.730;2022-10-16T06:13:35;5.05;;;2.20;;
51981;SDS011;37998;53.416;6.730;2022-10-16T06:16:02;3.88;;;2.42;;
51981;SDS011;37998;53.416;6.730;2022-10-16T06:18:28;6.28;;;2.17;;
51981;SDS011;37998;53.416;6.730;2022-10-16T06:20:55;6.07;;;2.08;;
51981;SDS011;37998;53.416;6.730;2022-10-16T06:23:21;10.77;;;2.45;;
51981;SDS011;37998;53.416;6.730;2022-10-16T06:25:47;3.17;;;2.63;;
51981;SDS011;37998;53.416;6.730;2022-10-16T06:28:13;8.50;;;2.33;;
51981;SDS011;37998;53.416;6.730;2022-10-16T06:30:40;5.63;;;2.28;;
51981;SDS011;37998;53.416;6.730;2022-10-16T06:33:07;5.25;;;2.85;;
51981;SDS011;37998;53.416;6.730;2022-10-16T06:35:33;8.75;;;2.10;;
51981;SDS011;37998;53.416;6.730;2022-10-16T06:37:59;3.35;;;2.20;;
51981;SDS011;37998;53.416;6.730;2022-10-16T06:40:24;9.60;;;2.55;;
51981;SDS011;37998;53.416;6.730;2022-10-16T06:42:50;4.00;;;2.75;;
51981;SDS011;37998;53.416;6.730;2022-10-16T06:45:17;5.70;;;2.83;;
51981;SDS011;37998;53.416;6.730;2022-10-16T06:47:42;7.15;;;2.60;;
51981;SDS011;37998;53.416;6.730;2022-10-16T06:50:08;4.85;;;2.40;;
51981;SDS011;37998;53.416;6.730;2022-10-16T06:52:34;3.50;;;2.20;;
51981;SDS011;37998;53.416;6.730;2022-10-16T06:55:00;5.53;;;2.53;;
51981;SDS011;37998;53.416;6.730;2022-10-16T06:57:25;5.78;;;2.35;;
51981;SDS011;37998;53.416;6.730;2022-10-16T06:59:51;7.45;;;2.83;;
51981;SDS011;37998;53.416;6.730;2022-10-16T07:02:17;5.30;;;2.35;;
51981;SDS011;37998;53.416;6.730;2022-10-16T07:04:42;6.28;;;2.70;;
51981;SDS011;37998;53.416;6.730;2022-10-16T07:07:08;8.43;;;2.65;;
51981;SDS011;37998;53.416;6.730;2022-10-16T07:09:33;4.25;;;2.22;;
51981;SDS011;37998;53.416;6.730;2022-10-16T07:11:59;5.07;;;2.72;;
51981;SDS011;37998;53.416;6.730;2022-10-16T07:14:25;7.15;;;2.60;;
51981;SDS011;37998;53.416;6.730;2022-10-16T07:16:50;5.88;;;2.63;;
51981;SDS011;37998;53.416;6.730;2022-10-16T07:19:16;10.20;;;3.28;;
51981;SDS011;37998;53.416;6.730;2022-10-16T07:21:43;12.93;;;3.00;;
51981;SDS011;37998;53.416;6.730;2022-10-16T07:24:13;9.85;;;3.10;;
51981;SDS011;37998;53.416;6.730;2022-10-16T07:26:40;7.53;;;2.85;;
51981;SDS011;37998;53.416;6.730;2022-10-16T07:29:13;9.50;;;2.53;;
51981;SDS011;37998;53.416;6.730;2022-10-16T07:31:40;8.93;;;2.90;;
51981;SDS011;37998;53.416;6.730;2022-10-16T07:34:07;5.63;;;2.63;;
51981;SDS011;37998;53.416;6.730;2022-10-16T07:36:33;6.60;;;2.30;;
51981;SDS011;37998;53.416;6.730;2022-10-16T07:38:59;7.15;;;2.60;;
51981;SDS011;37998;53.416;6.730;2022-10-16T07:41:24;7.05;;;2.60;;
51981;SDS011;37998;53.416;6.730;2022-10-16T07:43:51;8.23;;;2.60;;
51981;SDS011;37998;53.416;6.730;2022-10-16T07:46:18;7.65;;;2.72;;
51981;SDS011;37998;53.416;6.730;2022-10-16T07:48:44;7.47;;;2.55;;
51981;SDS011;37998;53.416;6.730;2022-10-16T07:51:12;7.65;;;2.47;;
51981;SDS011;37998;53.416;6.730;2022-10-16T07:53:39;7.22;;;2.35;;
51981;SDS011;37998;53.416;6.730;2022-10-16T07:56:05;8.10;;;2.05;;
51981;SDS011;37998;53.416;6.730;2022-10-16T07:58:32;5.97;;;2.13;;
51981;SDS011;37998;53.416;6.730;2022-10-16T08:01:05;9.27;;;2.20;;
51981;SDS011;37998;53.416;6.730;2022-10-16T08:03:33;5.00;;;2.25;;
51981;SDS011;37998;53.416;6.730;2022-10-16T08:05:59;6.13;;;2.25;;
51981;SDS011;37998;53.416;6.730;2022-10-16T08:08:26;7.05;;;2.25;;
51981;SDS011;37998;53.416;6.730;2022-10-16T08:10:52;9.93;;;2.70;;
51981;SDS011;37998;53.416;6.730;2022-10-16T08:13:18;13.05;;;2.55;;
51981;SDS011;37998;53.416;6.730;2022-10-16T08:15:45;7.13;;;2.10;;
51981;SDS011;37998;53.416;6.730;2022-10-16T08:18:11;7.53;;;2.15;;
51981;SDS011;37998;53.416;6.730;2022-10-16T08:20:38;4.55;;;2.22;;
51981;SDS011;37998;53.416;6.730;2022-10-16T08:23:04;3.88;;;2.25;;
51981;SDS011;37998;53.416;6.730;2022-10-16T08:25:30;8.65;;;2.38;;
51981;SDS011;37998;53.416;6.730;2022-10-16T08:27:56;6.85;;;2.40;;
51981;SDS011;37998;53.416;6.730;2022-10-16T08:30:22;7.28;;;2.28;;
51981;SDS011;37998;53.416;6.730;2022-10-16T08:32:49;8.30;;;2.25;;
51981;SDS011;37998;53.416;6.730;2022-10-16T08:35:15;7.55;;;2.50;;
51981;SDS011;37998;53.416;6.730;2022-10-16T08:37:41;7.82;;;2.60;;
51981;SDS011;37998;53.416;6.730;2022-10-16T08:40:19;10.07;;;2.80;;
51981;SDS011;37998;53.416;6.730;2022-10-16T08:42:57;6.15;;;2.80;;
51981;SDS011;37998;53.416;6.730;2022-10-16T08:48:05;6.38;;;2.63;;
51981;SDS011;37998;53.416;6.730;2022-10-16T08:50:42;6.57;;;2.38;;
51981;SDS011;37998;53.416;6.730;2022-10-16T08:53:10;4.57;;;2.30;;
51981;SDS011;37998;53.416;6.730;2022-10-16T08:55:43;6.75;;;2.65;;
51981;SDS011;37998;53.416;6.730;2022-10-16T08:58:23;4.00;;;2.03;;
51981;SDS011;37998;53.416;6.730;2022-10-16T09:14:34;5.45;;;1.92;;
51981;SDS011;37998;53.416;6.730;2022-10-16T09:25:41;9.57;;;2.35;;
51981;SDS011;37998;53.416;6.730;2022-10-16T09:28:09;5.90;;;2.20;;
51981;SDS011;37998;53.416;6.730;2022-10-16T09:30:35;6.18;;;2.20;;
51981;SDS011;37998;53.416;6.730;2022-10-16T09:33:02;5.97;;;2.15;;
51981;SDS011;37998;53.416;6.730;2022-10-16T09:35:39;8.35;;;2.38;;
51981;SDS011;37998;53.416;6.730;2022-10-16T09:38:07;5.55;;;1.83;;
51981;SDS011;37998;53.416;6.730;2022-10-16T09:40:34;9.07;;;2.13;;
51981;SDS011;37998;53.416;6.730;2022-10-16T09:43:21;9.55;;;2.20;;
51981;SDS011;37998;53.416;6.730;2022-10-16T09:46:19;9.45;;;2.55;;
51981;SDS011;37998;53.416;6.730;2022-10-16T09:48:56;6.93;;;2.28;;
51981;SDS011;37998;53.416;6.730;2022-10-16T09:51:27;8.95;;;2.85;;
51981;SDS011;37998;53.416;6.730;2022-10-16T09:53:59;10.32;;;2.58;;
51981;SDS011;37998;53.416;6.730;2022-10-16T09:56:30;9.02;;;2.30;;
51981;SDS011;37998;53.416;6.730;2022-10-16T09:58:58;13.25;;;2.63;;
51981;SDS011;37998;53.416;6.730;2022-10-16T10:01:30;9.88;;;2.13;;
51981;SDS011;37998;53.416;6.730;2022-10-16T10:04:06;10.50;;;2.60;;
51981;SDS011;37998;53.416;6.730;2022-10-16T10:06:34;9.60;;;2.30;;
51981;SDS011;37998;53.416;6.730;2022-10-16T10:09:06;14.07;;;2.50;;
51981;SDS011;37998;53.416;6.730;2022-10-16T10:14:26;9.20;;;2.63;;
51981;SDS011;37998;53.416;6.730;2022-10-16T10:19:49;11.70;;;2.80;;
51981;SDS011;37998;53.416;6.730;2022-10-16T10:22:19;10.93;;;2.53;;
51981;SDS011;37998;53.416;6.730;2022-10-16T10:38:30;12.50;;;2.65;;
51981;SDS011;37998;53.416;6.730;2022-10-16T10:43:49;12.40;;;3.22;;
51981;SDS011;37998;53.416;6.730;2022-10-16T10:49:19;12.48;;;2.58;;
51981;SDS011;37998;53.416;6.730;2022-10-16T10:52:01;13.98;;;2.72;;
51981;SDS011;37998;53.416;6.730;2022-10-16T10:55:15;12.82;;;2.53;;
51981;SDS011;37998;53.416;6.730;2022-10-16T10:57:21;12.05;;;2.88;;
51981;SDS011;37998;53.416;6.730;2022-10-16T11:07:49;12.73;;;3.60;;
51981;SDS011;37998;53.416;6.730;2022-10-16T11:13:19;18.35;;;3.80;;
51981;SDS011;37998;53.416;6.730;2022-10-16T11:16:27;8.63;;;2.60;;
51981;SDS011;37998;53.416;6.730;2022-10-16T11:18:58;8.85;;;2.33;;
51981;SDS011;37998;53.416;6.730;2022-10-16T11:21:44;8.50;;;2.55;;
51981;SDS011;37998;53.416;6.730;2022-10-16T11:24:23;13.82;;;2.88;;
51981;SDS011;37998;53.416;6.730;2022-10-16T11:27:00;8.70;;;2.45;;
51981;SDS011;37998;53.416;6.730;2022-10-16T11:29:32;11.02;;;2.40;;
51981;SDS011;37998;53.416;6.730;2022-10-16T11:32:01;9.48;;;2.58;;
51981;SDS011;37998;53.416;6.730;2022-10-16T11:34:41;12.38;;;2.53;;
51981;SDS011;37998;53.416;6.730;2022-10-16T11:37:14;9.30;;;2.75;;
51981;SDS011;37998;53.416;6.730;2022-10-16T11:39:44;12.82;;;2.70;;
51981;SDS011;37998;53.416;6.730;2022-10-16T11:42:32;15.93;;;3.35;;
51981;SDS011;37998;53.416;6.730;2022-10-16T11:45:08;16.92;;;3.80;;
51981;SDS011;37998;53.416;6.730;2022-10-16T11:47:40;14.27;;;3.22;;
51981;SDS011;37998;53.416;6.730;2022-10-16T11:50:17;15.63;;;3.05;;
51981;SDS011;37998;53.416;6.730;2022-10-16T11:53:13;12.55;;;2.90;;
51981;SDS011;37998;53.416;6.730;2022-10-16T11:55:47;20.45;;;3.72;;
51981;SDS011;37998;53.416;6.730;2022-10-16T11:58:32;16.23;;;3.95;;
51981;SDS011;37998;53.416;6.730;2022-10-16T12:06:49;18.50;;;3.28;;
51981;SDS011;37998;53.416;6.730;2022-10-16T12:09:19;14.80;;;2.85;;
51981;SDS011;37998;53.416;6.730;2022-10-16T12:11:56;9.85;;;2.42;;
51981;SDS011;37998;53.416;6.730;2022-10-16T12:16:59;9.48;;;2.40;;
51981;SDS011;37998;53.416;6.730;2022-10-16T12:19:27;14.35;;;2.65;;
51981;SDS011;37998;53.416;6.730;2022-10-16T12:21:55;11.68;;;3.05;;
51981;SDS011;37998;53.416;6.730;2022-10-16T12:24:33;13.07;;;2.60;;
51981;SDS011;37998;53.416;6.730;2022-10-16T12:27:05;10.00;;;2.38;;
51981;SDS011;37998;53.416;6.730;2022-10-16T12:29:45;13.38;;;2.50;;
51981;SDS011;37998;53.416;6.730;2022-10-16T12:32:33;9.68;;;2.20;;
51981;SDS011;37998;53.416;6.730;2022-10-16T12:35:16;9.98;;;2.30;;
51981;SDS011;37998;53.416;6.730;2022-10-16T12:37:44;8.45;;;2.42;;
51981;SDS011;37998;53.416;6.730;2022-10-16T12:40:11;8.65;;;1.75;;
51981;SDS011;37998;53.416;6.730;2022-10-16T12:42:58;9.13;;;2.25;;
51981;SDS011;37998;53.416;6.730;2022-10-16T12:45:26;7.47;;;2.05;;
51981;SDS011;37998;53.416;6.730;2022-10-16T12:47:55;8.23;;;2.28;;
51981;SDS011;37998;53.416;6.730;2022-10-16T12:50:25;8.98;;;2.40;;
51981;SDS011;37998;53.416;6.730;2022-10-16T12:52:55;9.02;;;2.80;;
51981;SDS011;37998;53.416;6.730;2022-10-16T12:55:21;11.15;;;2.35;;
51981;SDS011;37998;53.416;6.730;2022-10-16T12:58:03;9.60;;;1.85;;
51981;SDS011;37998;53.416;6.730;2022-10-16T13:00:59;9.02;;;2.55;;
51981;SDS011;37998;53.416;6.730;2022-10-16T13:09:20;8.50;;;2.55;;
51981;SDS011;37998;53.416;6.730;2022-10-16T13:22:58;10.05;;;2.08;;
51981;SDS011;37998;53.416;6.730;2022-10-16T13:28:16;10.55;;;2.55;;
51981;SDS011;37998;53.416;6.730;2022-10-16T13:30:50;9.43;;;1.98;;
51981;SDS011;37998;53.416;6.730;2022-10-16T13:33:27;8.75;;;2.03;;
51981;SDS011;37998;53.416;6.730;2022-10-16T13:36:01;9.60;;;2.70;;
51981;SDS011;37998;53.416;6.730;2022-10-16T13:38:31;13.18;;;2.78;;
51981;SDS011;37998;53.416;6.730;2022-10-16T13:41:05;13.75;;;2.13;;
51981;SDS011;37998;53.416;6.730;2022-10-16T13:43:42;8.25;;;2.60;;
51981;SDS011;37998;53.416;6.730;2022-10-16T13:46:14;9.38;;;2.60;;
51981;SDS011;37998;53.416;6.730;2022-10-16T13:48:40;15.55;;;2.13;;
51981;SDS011;37998;53.416;6.730;2022-10-16T13:51:16;13.77;;;2.95;;
51981;SDS011;37998;53.416;6.730;2022-10-16T13:53:44;8.52;;;2.20;;
51981;SDS011;37998;53.416;6.730;2022-10-16T13:56:11;10.75;;;2.55;;
51981;SDS011;37998;53.416;6.730;2022-10-16T13:58:39;11.63;;;2.53;;
51981;SDS011;37998;53.416;6.730;2022-10-16T14:01:06;10.60;;;2.75;;
51981;SDS011;37998;53.416;6.730;2022-10-16T14:03:45;11.13;;;2.45;;
51981;SDS011;37998;53.416;6.730;2022-10-16T14:06:13;12.73;;;2.58;;
51981;SDS011;37998;53.416;6.730;2022-10-16T14:08:44;13.27;;;3.38;;
51981;SDS011;37998;53.416;6.730;2022-10-16T14:11:12;12.52;;;2.78;;
51981;SDS011;37998;53.416;6.730;2022-10-16T14:13:39;8.40;;;2.20;;
51981;SDS011;37998;53.416;6.730;2022-10-16T14:16:09;9.02;;;1.85;;
51981;SDS011;37998;53.416;6.730;2022-10-16T14:18:41;9.48;;;2.30;;
51981;SDS011;37998;53.416;6.730;2022-10-16T14:21:12;8.15;;;1.85;;
51981;SDS011;37998;53.416;6.730;2022-10-16T14:23:40;8.00;;;2.58;;
51981;SDS011;37998;53.416;6.730;2022-10-16T14:28:35;11.43;;;2.10;;
51981;SDS011;37998;53.416;6.730;2022-10-16T14:31:03;10.10;;;2.50;;
51981;SDS011;37998;53.416;6.730;2022-10-16T14:33:50;10.55;;;2.13;;
51981;SDS011;37998;53.416;6.730;2022-10-16T14:36:16;11.43;;;2.70;;
51981;SDS011;37998;53.416;6.730;2022-10-16T14:39:00;9.70;;;2.05;;
51981;SDS011;37998;53.416;6.730;2022-10-16T14:41:29;10.63;;;2.83;;
51981;SDS011;37998;53.416;6.730;2022-10-16T14:43:58;14.15;;;3.00;;
51981;SDS011;37998;53.416;6.730;2022-10-16T14:46:37;12.20;;;2.88;;
51981;SDS011;37998;53.416;6.730;2022-10-16T14:49:13;11.80;;;2.85;;
51981;SDS011;37998;53.416;6.730;2022-10-16T14:51:43;14.05;;;2.60;;
51981;SDS011;37998;53.416;6.730;2022-10-16T14:54:10;14.95;;;2.63;;
51981;SDS011;37998;53.416;6.730;2022-10-16T15:01:56;13.30;;;2.55;;
51981;SDS011;37998;53.416;6.730;2022-10-16T15:04:22;12.18;;;2.60;;
51981;SDS011;37998;53.416;6.730;2022-10-16T15:06:47;12.43;;;3.00;;
51981;SDS011;37998;53.416;6.730;2022-10-16T15:09:13;10.65;;;2.60;;
51981;SDS011;37998;53.416;6.730;2022-10-16T15:11:39;10.57;;;2.10;;
51981;SDS011;37998;53.416;6.730;2022-10-16T15:14:08;12.45;;;2.50;;
51981;SDS011;37998;53.416;6.730;2022-10-16T15:16:38;9.60;;;2.80;;
51981;SDS011;37998;53.416;6.730;2022-10-16T15:19:03;11.25;;;2.40;;
51981;SDS011;37998;53.416;6.730;2022-10-16T15:21:30;9.02;;;2.03;;
51981;SDS011;37998;53.416;6.730;2022-10-16T15:23:57;11.18;;;2.75;;
51981;SDS011;37998;53.416;6.730;2022-10-16T15:26:28;10.15;;;2.55;;
51981;SDS011;37998;53.416;6.730;2022-10-16T15:28:55;9.10;;;2.28;;
51981;SDS011;37998;53.416;6.730;2022-10-16T15:31:20;9.55;;;2.60;;
51981;SDS011;37998;53.416;6.730;2022-10-16T15:33:49;11.00;;;3.20;;
51981;SDS011;37998;53.416;6.730;2022-10-16T15:36:27;7.97;;;2.53;;
51981;SDS011;37998;53.416;6.730;2022-10-16T15:38:54;10.98;;;3.30;;
51981;SDS011;37998;53.416;6.730;2022-10-16T15:41:20;13.93;;;3.45;;
51981;SDS011;37998;53.416;6.730;2022-10-16T15:43:49;11.38;;;3.20;;
51981;SDS011;37998;53.416;6.730;2022-10-16T15:46:17;12.80;;;3.17;;
51981;SDS011;37998;53.416;6.730;2022-10-16T15:48:44;8.45;;;3.08;;
51981;SDS011;37998;53.416;6.730;2022-10-16T15:51:10;11.40;;;2.83;;
51981;SDS011;37998;53.416;6.730;2022-10-16T15:53:36;13.07;;;3.40;;
51981;SDS011;37998;53.416;6.730;2022-10-16T15:56:02;14.30;;;3.95;;
51981;SDS011;37998;53.416;6.730;2022-10-16T15:58:28;14.32;;;4.00;;
51981;SDS011;37998;53.416;6.730;2022-10-16T16:00:55;13.80;;;3.10;;
51981;SDS011;37998;53.416;6.730;2022-10-16T16:03:22;8.73;;;2.90;;
51981;SDS011;37998;53.416;6.730;2022-10-16T16:05:47;14.35;;;3.30;;
51981;SDS011;37998;53.416;6.730;2022-10-16T16:08:13;8.60;;;3.10;;
51981;SDS011;37998;53.416;6.730;2022-10-16T16:10:38;16.95;;;3.67;;
51981;SDS011;37998;53.416;6.730;2022-10-16T16:13:04;12.23;;;3.40;;
51981;SDS011;37998;53.416;6.730;2022-10-16T16:15:30;10.95;;;3.28;;
51981;SDS011;37998;53.416;6.730;2022-10-16T16:17:55;14.07;;;3.17;;
51981;SDS011;37998;53.416;6.730;2022-10-16T16:20:21;10.85;;;2.50;;
51981;SDS011;37998;53.416;6.730;2022-10-16T16:22:47;16.95;;;8.05;;
51981;SDS011;37998;53.416;6.730;2022-10-16T16:25:12;48.13;;;30.65;;
51981;SDS011;37998;53.416;6.730;2022-10-16T16:27:38;27.80;;;17.60;;
51981;SDS011;37998;53.416;6.730;2022-10-16T16:30:05;26.67;;;17.27;;
51981;SDS011;37998;53.416;6.730;2022-10-16T16:32:32;18.20;;;12.13;;
51981;SDS011;37998;53.416;6.730;2022-10-16T16:34:59;14.48;;;6.05;;
51981;SDS011;37998;53.416;6.730;2022-10-16T16:37:25;12.73;;;5.03;;
51981;SDS011;37998;53.416;6.730;2022-10-16T16:39:50;16.33;;;4.90;;
51981;SDS011;37998;53.416;6.730;2022-10-16T16:42:16;11.98;;;3.90;;
51981;SDS011;37998;53.416;6.730;2022-10-16T16:44:42;13.50;;;3.10;;
51981;SDS011;37998;53.416;6.730;2022-10-16T16:47:09;12.02;;;3.00;;
51981;SDS011;37998;53.416;6.730;2022-10-16T16:49:35;7.93;;;2.42;;